Flight Track Log - Related Links

Times and Time Zones

All times are in EDT time to prevent confusion due to time zone crossing. See the CES2619 flight status page for this flight to view local times or setup timezone preferences in your user account.

Time Position Orientation Groundspeed Altitude Reporting Facility
EDT Latitude Longitude Course Direction KTS MPH feet Rate Location/Type
Sat 03:34:00 AM 29.0764 119.9436 200° South  Level Estimated
Sat 03:35:00 AM 28.9877 119.9065 200° South  Level Estimated
Sat 03:36:00 AM 28.8990 119.8695 200° South  Level Estimated
Sat 03:37:00 AM 28.8103 119.8326 200° South  Level Estimated
Sat 03:38:00 AM 28.7216 119.7957 200° South  Level Estimated
Sat 03:39:00 AM 28.6329 119.7588 200° South  Level Estimated
Sat 03:40:00 AM 28.5441 119.7221 200° South  Level Estimated
Sat 03:41:00 AM 28.4554 119.6854 200° South  Level Estimated
Sat 03:42:00 AM 28.3666 119.6487 200° South  Level Estimated
Sat 03:43:00 AM 28.2778 119.6121 200° South  Level Estimated
Sat 03:44:00 AM 28.1891 119.5756 200° South  Level Estimated
Sat 03:45:00 AM 28.1003 119.5391 200° South  Level Estimated
Sat 03:46:00 AM 28.0115 119.5027 200° South  Level Estimated
Sat 03:47:00 AM 27.9227 119.4664 200° South  Level Estimated
Sat 03:48:00 AM 27.8339 119.4301 200° South  Level Estimated
Sat 03:49:00 AM 27.7451 119.3939 200° South  Level Estimated
Sat 03:50:00 AM 27.6562 119.3577 200° South  Level Estimated
Sat 03:51:00 AM 27.5674 119.3216 200° South  Level Estimated
Sat 03:52:00 AM 27.4785 119.2856 200° South  Level Estimated
Sat 03:53:00 AM 27.3897 119.2496 200° South  Level Estimated
Sat 03:54:00 AM 27.3008 119.2136 200° South  Level Estimated
Sat 03:55:00 AM 27.2119 119.1778 200° South  Level Estimated
Sat 03:56:00 AM 27.1230 119.1420 200° South  Level Estimated
Sat 03:57:00 AM 27.0341 119.1062 200° South  Level Estimated
Sat 03:58:00 AM 26.9452 119.0705 200° South  Level Estimated
Sat 03:59:00 AM 26.8563 119.0348 200° South  Level Estimated
Sat 04:00:00 AM 26.7674 118.9992 200° South  Level Estimated
Sat 04:01:00 AM 26.6785 118.9637 200° South  Level Estimated
Sat 04:02:00 AM 26.5895 118.9282 200° South  Level Estimated
Sat 04:03:00 AM 26.5006 118.8928 200° South  Level Estimated
Sat 04:04:00 AM 26.4116 118.8574 200° South  Level Estimated
Sat 04:05:00 AM 26.3227 118.8221 200° South  Level Estimated
Sat 04:06:00 AM 26.2337 118.7868 200° South  Level Estimated
Sat 04:07:00 AM 26.1447 118.7516 200° South  Level Estimated
Sat 04:08:00 AM 26.0557 118.7165 200° South  Level Estimated
Sat 04:09:00 AM 25.9667 118.6814 200° South  Level Estimated
Sat 04:10:00 AM 25.8777 118.6463 200° South  Level Estimated
Sat 04:11:00 AM 25.7887 118.6113 199° South  Level Estimated
Sat 04:12:00 AM 25.6996 118.5764 199° South  Level Estimated
Sat 04:13:00 AM 25.6226 118.5462 199° South  Level Estimated
Sat 04:14:00 AM 25.5456 118.5161 199° South  Level Estimated
Sat 04:15:00 AM 25.4686 118.4860 199° South  Level Estimated
Sat 04:16:00 AM 25.3916 118.4559 199° South  Level Estimated
Sat 04:17:00 AM 25.3146 118.4259 199° South  Level Estimated
Sat 04:18:00 AM 25.2375 118.3959 199° South  Level Estimated
Sat 04:19:00 AM 25.1605 118.3660 199° South  Level Estimated
Sat 04:20:00 AM 25.0835 118.3360 199° South  Level Estimated
Sat 04:21:00 AM 25.0064 118.3062 199° South  Level Estimated
Sat 04:22:00 AM 24.9293 118.2763 199° South  Level Estimated
Sat 04:23:00 AM 24.8523 118.2465 199° South  Level Estimated
Sat 04:24:00 AM 24.7752 118.2168 199° South  Level Estimated
Sat 04:25:00 AM 24.6981 118.1870 199° South  Level Estimated
Sat 04:26:00 AM 24.6210 118.1574 199° South  Level Estimated
Sat 04:27:00 AM 24.5440 118.1277 199° South  Level Estimated
Sat 04:28:00 AM 24.5440 118.1277 North  Level Estimated
Sat 04:29:00 AM 24.5440 118.1277 North  Level Estimated
Sat 04:30:00 AM 24.5440 118.1277 North  Level Estimated
Sat 04:31:00 AM 24.5440 118.1277 North  Level Estimated
Sat 04:32:00 AM 24.5440 118.1277 North  Level Estimated
Sat 04:33:00 AM 24.5440 118.1277 North  Level Estimated
Sat 04:34:00 AM 24.5440 118.1277 North  Level Estimated
Sat 04:35:00 AM 24.5440 118.1277 North  Level Estimated
Sat 04:36:00 AM 24.5440 118.1277 North  Level Estimated
Sat 04:37:00 AM 24.5440 118.1277 North  Level Estimated
Sat 04:38:00 AM 24.5440 118.1277 North  Level Estimated
Sat 04:39:00 AM 24.5440 118.1277 North  Level Estimated
Sat 04:40:00 AM 24.5440 118.1277 North  Level Estimated
Sat 04:41:00 AM 24.5440 118.1277 North  Level Estimated
Sat 04:42:00 AM 24.5440 118.1277 North  Level Estimated
Sat 04:43:00 AM 24.5440 118.1277 North  Level Estimated
Sat 04:44:00 AM 24.5440 118.1277 North  Level Estimated
Sat 04:45:00 AM 24.5440 118.1277 North  Level Estimated
Sat 04:46:00 AM 24.5440 118.1277 North  Level Estimated
Sat 04:47:00 AM 24.5440 118.1277 North  Level Estimated
Sat 04:48:00 AM 24.5440 118.1277 North  Level Estimated
Sat 04:49:00 AM 24.5440 118.1277 North  Level Estimated
Sat 04:50:00 AM 24.5440 118.1277 North  Level Estimated

Login

Don't have an account? Register now (free) for customized features, flight alerts, and more!